Amissville, Virginia
Current Conditions -  °F | °C
As of 12:55 AM on Friday 28 Nov 2014 (Local Time) from KCJR Reporting Station
Clear Clear  
Wind Chill:   Ceiling: Unl
Heat Index:   Visibility: 10mi
Dew Point: -4°   Wind: 0mph
Humidity: 70%   Direction: NA
Pressure: 30.21"   Gusts: NA
Location:  38.67°N, 77.99°W
Report Text: KCJR 280555Z AUTO 00000KT 10SM CLR 01/M04 A3021 RMK AO2
Loading
Personal Weather Stations






























Interactive Weather Map New forecast layout! Learn more

10-Day Weather Forecast

Advertisements
Track Severe Weather on mobile